Time;durP1;ratioP1;P1;durP2;ratioP2;P2;SDS_P1;SDS_P2;PMS_P1;PMS_P2;Temp;Humidity;BMP_temperature;BMP_pressure;BME280_temperature;BME280_humidity;BME280_pressure;Samples;Min_cycle;Max_cycle;Signal;HPM_P1;HPM_P2
2022/04/15 00:02:24;;;;;;;80.80;35.42;;;;;;;;;;5017400;28;20651;-57
2022/04/15 00:04:52;;;;;;;52.08;26.30;;;;;;;;;;5017418;28;20284;-58
2022/04/15 00:07:19;;;;;;;51.83;26.55;;;;;;;;;;5016951;28;20587;-57
2022/04/15 00:09:46;;;;;;;42.17;21.75;;;;;;;;;;5017430;28;20291;-57
2022/04/15 00:12:18;;;;;;;39.13;19.80;;;;;;;;;;5017589;28;20625;-57
2022/04/15 00:14:45;;;;;;;155.95;73.07;;;;;;;;;;5017249;28;20225;-57
2022/04/15 00:17:13;;;;;;;59.38;22.85;;;;;;;;;;5017678;28;20276;-57
2022/04/15 00:19:41;;;;;;;37.35;17.17;;;;;;;;;;5017722;28;20225;-57
2022/04/15 00:22:09;;;;;;;46.65;19.70;;;;;;;;;;5017382;28;20205;-57
2022/04/15 00:24:36;;;;;;;33.47;15.63;;;;;;;;;;5017264;28;20205;-57
2022/04/15 00:27:03;;;;;;;43.65;19.33;;;;;;;;;;5017246;28;20240;-57
2022/04/15 00:29:31;;;;;;;35.08;18.17;;;;;;;;;;5016999;28;20229;-57
2022/04/15 00:31:58;;;;;;;33.15;16.27;;;;;;;;;;5017531;28;20587;-56
2022/04/15 00:34:25;;;;;;;113.00;55.65;;;;;;;;;;5017075;28;20610;-57
2022/04/15 00:36:52;;;;;;;79.32;26.35;;;;;;;;;;5016936;28;20232;-57
2022/04/15 00:39:19;;;;;;;48.28;15.32;;;;;;;;;;5016985;28;20286;-57
2022/04/15 00:41:46;;;;;;;36.05;14.48;;;;;;;;;;5016748;28;20236;-57
2022/04/15 00:44:14;;;;;;;28.23;12.25;;;;;;;;;;5016703;28;20201;-57
2022/04/15 00:46:41;;;;;;;22.10;11.50;;;;;;;;;;5016523;28;20259;-57
2022/04/15 00:49:09;;;;;;;25.83;12.45;;;;;;;;;;5016731;28;20703;-57
2022/04/15 00:51:36;;;;;;;33.70;12.40;;;;;;;;;;5016986;28;20659;-57
2022/04/15 00:54:04;;;;;;;38.88;15.80;;;;;;;;;;5032095;28;20264;-57
2022/04/15 00:56:34;;;;;;;56.85;24.88;;;;;;;;;;5016809;28;20300;-57
2022/04/15 00:59:04;;;;;;;54.78;18.52;;;;;;;;;;5016429;28;20193;-57
2022/04/15 01:01:31;;;;;;;33.13;13.38;;;;;;;;;;5016327;28;20205;-57
2022/04/15 01:04:00;;;;;;;30.27;11.80;;;;;;;;;;5016498;28;20296;-57
2022/04/15 01:06:29;;;;;;;27.33;11.73;;;;;;;;;;5016211;28;20229;-57
2022/04/15 01:08:58;;;;;;;38.80;15.18;;;;;;;;;;5031681;28;20291;-57
2022/04/15 01:11:27;;;;;;;20.50;9.60;;;;;;;;;;5016495;28;20671;-57
2022/04/15 01:13:56;;;;;;;25.33;10.90;;;;;;;;;;5016494;28;20291;-57
2022/04/15 01:16:25;;;;;;;114.07;55.47;;;;;;;;;;5015809;28;20198;-57
2022/04/15 01:18:52;;;;;;;52.55;17.38;;;;;;;;;;5015419;28;20221;-57
2022/04/15 01:21:26;;;;;;;49.88;16.58;;;;;;;;;;5016102;28;20198;-57
2022/04/15 01:23:57;;;;;;;27.90;12.38;;;;;;;;;;5016478;28;20248;-57
2022/04/15 01:26:24;;;;;;;27.15;14.77;;;;;;;;;;5016853;28;20202;-57
2022/04/15 01:28:51;;;;;;;21.33;11.23;;;;;;;;;;5015883;28;20259;-57
2022/04/15 01:31:18;;;;;;;20.98;10.15;;;;;;;;;;5016047;28;20278;-58
2022/04/15 01:33:46;;;;;;;20.25;10.65;;;;;;;;;;5015919;28;20545;-58
2022/04/15 01:36:14;;;;;;;29.40;12.18;;;;;;;;;;5015807;28;20632;-58
2022/04/15 01:38:41;;;;;;;54.92;18.80;;;;;;;;;;5015794;28;20244;-58
2022/04/15 01:41:08;;;;;;;47.03;15.50;;;;;;;;;;5015926;28;20291;-58
2022/04/15 01:43:35;;;;;;;26.45;12.32;;;;;;;;;;5015944;28;20205;-58
2022/04/15 01:46:02;;;;;;;35.20;12.68;;;;;;;;;;5015726;28;20284;-58
2022/04/15 01:48:29;;;;;;;24.02;11.05;;;;;;;;;;5015849;28;20208;-57
2022/04/15 01:50:56;;;;;;;20.58;11.45;;;;;;;;;;5015582;28;20540;-57
2022/04/15 01:53:23;;;;;;;26.77;11.65;;;;;;;;;;5015374;28;20279;-58
2022/04/15 01:55:51;;;;;;;37.92;13.85;;;;;;;;;;5015704;28;20210;-58
2022/04/15 01:58:18;;;;;;;251.30;103.95;;;;;;;;;;5015589;28;20232;-58
2022/04/15 02:00:45;;;;;;;30.10;12.90;;;;;;;;;;5015606;28;20643;-58
2022/04/15 02:03:13;;;;;;;38.45;13.82;;;;;;;;;;5015611;28;20225;-58
2022/04/15 02:05:40;;;;;;;23.98;11.07;;;;;;;;;;5015352;28;20202;-58
2022/04/15 02:08:07;;;;;;;25.65;11.73;;;;;;;;;;5015124;28;20644;-58
2022/04/15 02:10:34;;;;;;;25.52;11.73;;;;;;;;;;5015622;28;20275;-58
2022/04/15 02:13:01;;;;;;;32.75;13.50;;;;;;;;;;5014904;28;20208;-58
2022/04/15 02:15:29;;;;;;;22.20;10.93;;;;;;;;;;5015326;28;20228;-58
2022/04/15 02:17:56;;;;;;;24.27;11.60;;;;;;;;;;5015098;28;20224;-58
2022/04/15 02:20:23;;;;;;;79.10;26.85;;;;;;;;;;5015375;28;20202;-57
2022/04/15 02:22:52;;;;;;;40.70;14.35;;;;;;;;;;5015019;28;20599;-57
2022/04/15 02:25:19;;;;;;;30.55;12.38;;;;;;;;;;5015065;28;20591;-58
2022/04/15 02:27:46;;;;;;;29.05;12.82;;;;;;;;;;5030641;28;20667;-58
2022/04/15 02:30:13;;;;;;;30.90;12.95;;;;;;;;;;5015691;28;20240;-58
2022/04/15 02:32:40;;;;;;;21.20;11.40;;;;;;;;;;5015143;28;20280;-57
2022/04/15 02:35:08;;;;;;;24.73;11.95;;;;;;;;;;5014877;28;20709;-57
2022/04/15 02:37:36;;;;;;;25.88;11.55;;;;;;;;;;5030783;28;20264;-58
2022/04/15 02:40:04;;;;;;;36.22;15.55;;;;;;;;;;5015152;28;20202;-58
2022/04/15 02:42:31;;;;;;;63.65;21.80;;;;;;;;;;5015040;28;20205;-57
2022/04/15 02:44:58;;;;;;;29.80;11.90;;;;;;;;;;5014791;28;20244;-58
2022/04/15 02:47:25;;;;;;;27.92;12.25;;;;;;;;;;5014856;28;20292;-58
2022/04/15 02:49:52;;;;;;;25.80;11.52;;;;;;;;;;5014917;28;20636;-58
2022/04/15 02:52:21;;;;;;;26.50;12.65;;;;;;;;;;5014909;28;20244;-57
2022/04/15 02:54:48;;;;;;;25.70;11.77;;;;;;;;;;5014604;28;20225;-57
2022/04/15 02:57:15;;;;;;;29.08;13.77;;;;;;;;;;5014954;28;20224;-57
2022/04/15 02:59:42;;;;;;;33.20;14.05;;;;;;;;;;5015007;28;20210;-52
2022/04/15 03:02:09;;;;;;;68.75;24.75;;;;;;;;;;5014583;28;20232;-56
2022/04/15 03:04:36;;;;;;;79.35;23.60;;;;;;;;;;5015106;28;20213;-57
2022/04/15 03:07:04;;;;;;;21.85;11.05;;;;;;;;;;5014557;28;20580;-57
2022/04/15 03:09:31;;;;;;;52.28;18.35;;;;;;;;;;5014480;28;20288;-57
2022/04/15 03:11:57;;;;;;;37.67;14.93;;;;;;;;;;5014306;28;20209;-57
2022/04/15 03:14:25;;;;;;;27.73;13.55;;;;;;;;;;5014454;28;20256;-56
2022/04/15 03:16:52;;;;;;;34.38;14.98;;;;;;;;;;5014422;28;20213;-57
2022/04/15 03:19:19;;;;;;;22.73;11.10;;;;;;;;;;5014371;28;20229;-57
2022/04/15 03:21:46;;;;;;;19.38;11.38;;;;;;;;;;5014413;28;20285;-57
2022/04/15 03:24:13;;;;;;;24.65;11.30;;;;;;;;;;5014520;28;20271;-56
2022/04/15 03:26:40;;;;;;;67.97;21.25;;;;;;;;;;5013166;28;20224;-57
2022/04/15 03:29:07;;;;;;;44.60;17.80;;;;;;;;;;5012518;28;20288;-57
2022/04/15 03:31:35;;;;;;;25.63;12.98;;;;;;;;;;5004542;28;20640;-60
2022/04/15 03:34:02;;;;;;;23.65;11.45;;;;;;;;;;5012827;28;20209;-57
2022/04/15 03:36:29;;;;;;;35.92;14.75;;;;;;;;;;5013063;28;20205;-58
2022/04/15 03:38:56;;;;;;;25.92;12.73;;;;;;;;;;5012706;28;20201;-58
2022/04/15 03:41:23;;;;;;;44.65;18.30;;;;;;;;;;5007953;28;20217;-57
2022/04/15 03:43:50;;;;;;;26.55;12.27;;;;;;;;;;5014719;28;20280;-57
2022/04/15 03:46:18;;;;;;;21.67;12.20;;;;;;;;;;5016562;28;20297;-58
2022/04/15 03:48:45;;;;;;;63.78;22.75;;;;;;;;;;5016621;28;20198;-57
2022/04/15 03:51:12;;;;;;;40.17;16.00;;;;;;;;;;5016483;28;20193;-58
2022/04/15 03:53:39;;;;;;;51.85;19.05;;;;;;;;;;5015681;28;20206;-58
2022/04/15 03:56:07;;;;;;;48.88;17.30;;;;;;;;;;5016329;28;20213;-58
2022/04/15 03:58:35;;;;;;;48.22;18.45;;;;;;;;;;5016664;28;20680;-58
2022/04/15 04:01:02;;;;;;;29.15;13.43;;;;;;;;;;5017254;28;20259;-57
2022/04/15 04:03:29;;;;;;;60.42;30.77;;;;;;;;;;5016687;28;20197;-58
2022/04/15 04:05:57;;;;;;;49.10;18.25;;;;;;;;;;5017523;28;20294;-57
2022/04/15 04:08:24;;;;;;;47.90;16.77;;;;;;;;;;5017056;28;20233;-58
2022/04/15 04:10:51;;;;;;;37.08;14.35;;;;;;;;;;5017441;28;20650;-57
2022/04/15 04:13:18;;;;;;;48.33;19.00;;;;;;;;;;5017451;28;20248;-57
2022/04/15 04:15:45;;;;;;;38.67;15.77;;;;;;;;;;5017296;28;20320;-57
2022/04/15 04:18:14;;;;;;;30.10;14.60;;;;;;;;;;5018996;28;20235;-57
2022/04/15 04:20:41;;;;;;;56.83;21.90;;;;;;;;;;5019043;28;20245;-58
2022/04/15 04:23:08;;;;;;;58.92;29.05;;;;;;;;;;5028273;28;20250;-60
2022/04/15 04:25:35;;;;;;;70.28;29.40;;;;;;;;;;5024198;28;20286;-58
2022/04/15 04:28:03;;;;;;;96.72;27.60;;;;;;;;;;5022483;28;20631;-58
2022/04/15 04:30:30;;;;;;;54.50;19.65;;;;;;;;;;5029376;28;20264;-58
2022/04/15 04:32:59;;;;;;;36.50;15.48;;;;;;;;;;5022691;28;20275;-57
2022/04/15 04:35:27;;;;;;;22.75;12.20;;;;;;;;;;5035895;28;20291;-58
2022/04/15 04:37:54;;;;;;;31.30;12.52;;;;;;;;;;5022504;28;20309;-59
2022/04/15 04:40:21;;;;;;;40.13;16.65;;;;;;;;;;5014989;28;20228;-60
2022/04/15 04:42:50;;;;;;;30.73;14.57;;;;;;;;;;5014806;28;20672;-60
2022/04/15 04:45:18;;;;;;;317.30;116.10;;;;;;;;;;5014723;28;20233;-60
2022/04/15 04:47:46;;;;;;;192.98;49.53;;;;;;;;;;5030261;28;20253;-52
2022/04/15 04:50:13;;;;;;;56.85;19.13;;;;;;;;;;5014293;28;20558;-57
2022/04/15 04:52:41;;;;;;;36.03;15.20;;;;;;;;;;5014536;28;20223;-54
2022/04/15 04:55:08;;;;;;;38.80;15.65;;;;;;;;;;5013666;28;20280;-55
2022/04/15 04:57:38;;;;;;;26.45;14.32;;;;;;;;;;5014380;28;20320;-56
2022/04/15 05:00:07;;;;;;;42.40;17.05;;;;;;;;;;5014429;28;20676;-56
2022/04/15 05:02:35;;;;;;;64.10;21.95;;;;;;;;;;5016148;28;20240;-54
2022/04/15 05:05:03;;;;;;;582.45;306.92;;;;;;;;;;5014832;28;20336;-55
2022/04/15 05:07:30;;;;;;;149.02;43.72;;;;;;;;;;5008601;28;20217;-55
2022/04/15 05:09:57;;;;;;;81.75;26.05;;;;;;;;;;5014212;28;20248;-50
2022/04/15 05:12:25;;;;;;;85.38;26.63;;;;;;;;;;5013882;28;20265;-53
2022/04/15 05:14:52;;;;;;;48.95;20.48;;;;;;;;;;5013696;28;20616;-50
2022/04/15 05:17:19;;;;;;;49.42;20.30;;;;;;;;;;5013446;28;20284;-55
2022/04/15 05:19:47;;;;;;;30.48;14.85;;;;;;;;;;5013759;28;20256;-55
2022/04/15 05:22:14;;;;;;;29.10;14.80;;;;;;;;;;5012777;28;20228;-49
2022/04/15 05:24:41;;;;;;;37.85;17.73;;;;;;;;;;5012988;28;20230;-55
2022/04/15 05:27:09;;;;;;;36.15;19.23;;;;;;;;;;5013848;28;20292;-57
2022/04/15 05:29:36;;;;;;;38.33;16.98;;;;;;;;;;5012816;28;20317;-50
2022/04/15 05:32:03;;;;;;;40.38;15.68;;;;;;;;;;5009554;28;20584;-53
2022/04/15 05:34:31;;;;;;;32.47;15.82;;;;;;;;;;5010822;28;20732;-55
2022/04/15 05:36:58;;;;;;;29.58;15.75;;;;;;;;;;5014597;28;20291;-53
2022/04/15 05:39:25;;;;;;;38.42;18.83;;;;;;;;;;5013503;28;20225;-55
2022/04/15 05:41:53;;;;;;;34.30;18.48;;;;;;;;;;5017335;28;20274;-55
2022/04/15 05:44:20;;;;;;;30.30;15.38;;;;;;;;;;5013781;28;20229;-53
2022/04/15 05:46:47;;;;;;;26.42;15.55;;;;;;;;;;5023964;28;20229;-52
2022/04/15 05:49:16;;;;;;;25.30;15.82;;;;;;;;;;5017863;28;20312;-54
2022/04/15 05:51:45;;;;;;;26.67;15.20;;;;;;;;;;5014851;28;20328;-54
2022/04/15 05:54:13;;;;;;;25.63;16.50;;;;;;;;;;5014612;28;20548;-54
2022/04/15 05:56:40;;;;;;;32.63;16.50;;;;;;;;;;5014769;28;20260;-53
2022/04/15 05:59:07;;;;;;;26.83;16.75;;;;;;;;;;5012941;28;20221;-55
2022/04/15 06:01:35;;;;;;;30.70;17.33;;;;;;;;;;5013912;28;20221;-55
2022/04/15 06:04:02;;;;;;;28.85;17.67;;;;;;;;;;5014317;28;20277;-54
2022/04/15 06:06:29;;;;;;;29.67;16.70;;;;;;;;;;5013632;28;20696;-56
2022/04/15 06:08:56;;;;;;;27.15;17.08;;;;;;;;;;5014036;28;20233;-57
2022/04/15 06:11:25;;;;;;;29.35;17.90;;;;;;;;;;5013100;28;20304;-56
2022/04/15 06:13:52;;;;;;;29.92;18.55;;;;;;;;;;5014403;28;20260;-58
2022/04/15 06:16:20;;;;;;;26.13;17.10;;;;;;;;;;5014339;28;20671;-58
2022/04/15 06:18:48;;;;;;;31.33;18.27;;;;;;;;;;5025915;28;20240;-57
2022/04/15 06:21:35;;;;;;;27.33;17.85;;;;;;;;;;5013943;28;20304;-58
2022/04/15 06:24:03;;;;;;;30.02;18.83;;;;;;;;;;5014518;28;20252;-57
2022/04/15 06:26:30;;;;;;;27.15;17.63;;;;;;;;;;5014398;28;20249;-57
2022/04/15 06:28:57;;;;;;;26.70;17.33;;;;;;;;;;5014273;28;20321;-57
2022/04/15 06:31:24;;;;;;;29.02;18.20;;;;;;;;;;5014093;28;20256;-57
2022/04/15 06:33:52;;;;;;;31.40;18.45;;;;;;;;;;5012223;28;20228;-57
2022/04/15 06:36:20;;;;;;;27.88;17.13;;;;;;;;;;5013266;28;20252;-58
2022/04/15 06:38:47;;;;;;;35.58;15.68;;;;;;;;;;5013719;28;20233;-53
2022/04/15 06:41:14;;;;;;;26.15;15.02;;;;;;;;;;5013187;28;20657;-58
2022/04/15 06:43:42;;;;;;;24.52;15.82;;;;;;;;;;5012910;28;20263;-58
2022/04/15 06:46:09;;;;;;;26.95;16.08;;;;;;;;;;5013987;28;20221;-58
2022/04/15 06:48:36;;;;;;;23.67;15.73;;;;;;;;;;5012474;28;20249;-57
2022/04/15 06:51:04;;;;;;;28.15;15.20;;;;;;;;;;5012804;28;20304;-57
2022/04/15 06:53:31;;;;;;;28.65;16.15;;;;;;;;;;5012322;28;20241;-58
2022/04/15 06:55:58;;;;;;;29.52;15.80;;;;;;;;;;5012815;28;20323;-57
2022/04/15 06:58:25;;;;;;;23.33;15.13;;;;;;;;;;5012497;28;20304;-58
2022/04/15 07:00:53;;;;;;;27.23;15.45;;;;;;;;;;5006907;28;20300;-58
2022/04/15 07:03:20;;;;;;;30.58;16.23;;;;;;;;;;5011120;28;20669;-59
2022/04/15 07:05:47;;;;;;;26.10;16.23;;;;;;;;;;5007672;28;20276;-58
2022/04/15 07:08:14;;;;;;;22.58;15.32;;;;;;;;;;5012437;28;20299;-58
2022/04/15 07:10:42;;;;;;;22.55;15.50;;;;;;;;;;5013744;28;20261;-58
2022/04/15 07:13:09;;;;;;;25.67;16.30;;;;;;;;;;5013751;28;20279;-58
2022/04/15 07:15:37;;;;;;;24.65;16.13;;;;;;;;;;5013454;28;20295;-58
2022/04/15 07:18:04;;;;;;;29.15;16.05;;;;;;;;;;5015737;28;20315;-57
2022/04/15 07:20:32;;;;;;;26.13;16.52;;;;;;;;;;5016995;28;20213;-59
2022/04/15 07:23:00;;;;;;;28.00;16.63;;;;;;;;;;5017259;28;20528;-58
2022/04/15 07:25:28;;;;;;;33.40;20.67;;;;;;;;;;5016934;28;20720;-53
2022/04/15 07:27:56;;;;;;;27.27;18.50;;;;;;;;;;5016272;28;20214;-58
2022/04/15 07:30:24;;;;;;;31.25;18.25;;;;;;;;;;5016739;28;20221;-57
2022/04/15 07:32:52;;;;;;;34.95;18.70;;;;;;;;;;5016136;28;20248;-57
2022/04/15 07:35:19;;;;;;;33.67;18.35;;;;;;;;;;5013439;28;20537;-59
2022/04/15 07:37:47;;;;;;;32.97;18.08;;;;;;;;;;5017067;28;20293;-56
2022/04/15 07:40:14;;;;;;;31.92;17.50;;;;;;;;;;5016932;28;20259;-58
2022/04/15 07:42:41;;;;;;;29.48;17.98;;;;;;;;;;5015904;28;20221;-58
2022/04/15 07:45:09;;;;;;;29.55;16.92;;;;;;;;;;5016688;28;20844;-58
2022/04/15 07:47:36;;;;;;;28.63;17.38;;;;;;;;;;5017852;28;20278;-55
2022/04/15 07:50:22;;;;;;;30.63;16.73;;;;;;;;;;5016642;28;20221;-56
2022/04/15 07:52:50;;;;;;;31.80;17.58;;;;;;;;;;5016446;28;20311;-58
2022/04/15 07:55:18;;;;;;;31.30;16.73;;;;;;;;;;5011388;28;20225;-58
2022/04/15 07:57:45;;;;;;;29.38;17.33;;;;;;;;;;5015454;28;20275;-57
2022/04/15 08:00:12;;;;;;;26.92;16.80;;;;;;;;;;5015793;28;20249;-60
2022/04/15 08:02:40;;;;;;;27.55;16.60;;;;;;;;;;5015348;28;20252;-57
2022/04/15 08:05:08;;;;;;;29.40;17.55;;;;;;;;;;5016291;28;20669;-58
2022/04/15 08:07:36;;;;;;;27.10;17.40;;;;;;;;;;5015980;28;20306;-55
2022/04/15 08:10:03;;;;;;;27.55;17.35;;;;;;;;;;5015647;28;20240;-56
2022/04/15 08:12:30;;;;;;;26.73;16.88;;;;;;;;;;5015783;28;20217;-55
2022/04/15 08:15:00;;;;;;;26.13;17.10;;;;;;;;;;5023462;28;20617;-57
2022/04/15 08:17:29;;;;;;;27.38;18.40;;;;;;;;;;5017268;28;20230;-57
2022/04/15 08:19:58;;;;;;;28.70;18.15;;;;;;;;;;5036558;28;20228;-57
2022/04/15 08:22:26;;;;;;;33.88;18.33;;;;;;;;;;5017669;28;20244;-56
2022/04/15 08:24:54;;;;;;;33.08;18.73;;;;;;;;;;5015887;28;20218;-56
2022/04/15 08:27:25;;;;;;;30.85;19.75;;;;;;;;;;5015892;28;20228;-58
2022/04/15 08:29:53;;;;;;;30.88;19.60;;;;;;;;;;5015207;28;20232;-58
2022/04/15 08:32:21;;;;;;;32.17;19.10;;;;;;;;;;5014986;28;20275;-58
2022/04/15 08:34:48;;;;;;;26.85;19.20;;;;;;;;;;5015974;28;20221;-58
2022/04/15 08:37:15;;;;;;;29.65;20.02;;;;;;;;;;5015599;28;20676;-56
2022/04/15 08:39:42;;;;;;;31.65;19.95;;;;;;;;;;5012854;28;20630;-58
2022/04/15 08:42:09;;;;;;;32.20;20.77;;;;;;;;;;5015521;28;20237;-57
2022/04/15 08:44:37;;;;;;;34.22;21.42;;;;;;;;;;5015431;28;21997;-58
2022/04/15 08:47:06;;;;;;;31.70;20.27;;;;;;;;;;5015924;28;20291;-57
2022/04/15 08:49:34;;;;;;;30.52;21.13;;;;;;;;;;5031583;28;20205;-57
2022/04/15 08:52:01;;;;;;;34.15;21.85;;;;;;;;;;5031062;28;20217;-57
2022/04/15 08:54:29;;;;;;;35.85;23.70;;;;;;;;;;5016150;28;20197;-42
2022/04/15 08:56:56;;;;;;;39.40;23.55;;;;;;;;;;5013833;28;20233;-44
2022/04/15 08:59:23;;;;;;;32.08;24.15;;;;;;;;;;5010476;28;20197;-44
2022/04/15 09:01:51;;;;;;;35.33;25.88;;;;;;;;;;5012654;28;20206;-43
2022/04/15 09:04:18;;;;;;;41.28;29.10;;;;;;;;;;5012331;28;20595;-43
2022/04/15 09:06:54;;;;;;;45.40;32.90;;;;;;;;;;5012651;28;20213;-44
2022/04/15 09:09:24;;;;;;;46.13;34.42;;;;;;;;;;5015210;28;20562;-44
2022/04/15 09:11:51;;;;;;;55.30;38.05;;;;;;;;;;5014694;28;20209;-45
2022/04/15 09:14:19;;;;;;;58.83;36.67;;;;;;;;;;5012335;28;20203;-43
2022/04/15 09:16:47;;;;;;;59.15;39.58;;;;;;;;;;5015034;28;20738;-45
2022/04/15 09:19:16;;;;;;;61.25;38.88;;;;;;;;;;5015166;28;20669;-43
2022/04/15 09:22:01;;;;;;;58.83;39.05;;;;;;;;;;5014912;28;20573;-43
2022/04/15 09:24:33;;;;;;;56.15;36.60;;;;;;;;;;5013825;28;20213;-43
2022/04/15 09:27:04;;;;;;;58.38;39.05;;;;;;;;;;5012203;28;20224;-43
2022/04/15 09:29:40;;;;;;;51.60;36.38;;;;;;;;;;5014458;28;20220;-46
2022/04/15 09:32:09;;;;;;;56.95;39.70;;;;;;;;;;5014819;28;20224;-43
2022/04/15 09:35:09;;;;;;;62.55;40.00;;;;;;;;;;5014678;28;20229;-43
2022/04/15 09:37:43;;;;;;;63.80;41.72;;;;;;;;;;5014513;28;20186;-43
2022/04/15 09:40:14;;;;;;;61.72;41.17;;;;;;;;;;5013639;28;20197;-43
2022/04/15 09:42:55;;;;;;;68.00;43.05;;;;;;;;;;5016107;28;20194;-42
2022/04/15 09:45:24;;;;;;;57.13;40.30;;;;;;;;;;5015629;28;20281;-43
2022/04/15 09:48:11;;;;;;;64.07;45.10;;;;;;;;;;5015935;28;20237;-43
2022/04/15 09:50:42;;;;;;;67.65;46.28;;;;;;;;;;5015661;28;20581;-43
2022/04/15 09:53:16;;;;;;;74.00;47.50;;;;;;;;;;5015383;28;20264;-44
2022/04/15 09:55:48;;;;;;;61.70;42.45;;;;;;;;;;5015172;28;20304;-43
2022/04/15 09:58:17;;;;;;;68.95;44.55;;;;;;;;;;5015769;28;20224;-43
2022/04/15 10:00:51;;;;;;;79.65;48.30;;;;;;;;;;5015337;28;20224;-43
2022/04/15 10:03:23;;;;;;;72.45;44.95;;;;;;;;;;5015182;28;20628;-43
2022/04/15 10:05:57;;;;;;;72.55;42.65;;;;;;;;;;5015943;28;20204;-43
2022/04/15 10:08:26;;;;;;;78.60;43.95;;;;;;;;;;5014909;28;20668;-43
2022/04/15 10:10:55;;;;;;;63.25;41.55;;;;;;;;;;5015112;28;20194;-43
2022/04/15 10:13:27;;;;;;;79.50;46.97;;;;;;;;;;5013582;28;20193;-44
2022/04/15 10:15:55;;;;;;;88.88;50.92;;;;;;;;;;5011884;28;20300;-43
2022/04/15 10:18:23;;;;;;;79.75;49.45;;;;;;;;;;5015062;28;20201;-43
2022/04/15 10:20:51;;;;;;;64.28;44.00;;;;;;;;;;5014731;28;20680;-44
2022/04/15 10:23:21;;;;;;;68.45;45.00;;;;;;;;;;5014449;28;20291;-44
2022/04/15 10:25:49;;;;;;;66.65;44.05;;;;;;;;;;5029431;28;20534;-45
2022/04/15 10:28:18;;;;;;;79.13;48.83;;;;;;;;;;5014792;28;20202;-47
2022/04/15 10:31:11;;;;;;;86.88;54.70;;;;;;;;;;5030240;28;20221;-44
2022/04/15 10:33:40;;;;;;;86.10;52.67;;;;;;;;;;5014612;28;20639;-44
2022/04/15 10:36:21;;;;;;;91.97;55.80;;;;;;;;;;5014231;28;20220;-43
2022/04/15 10:39:04;;;;;;;61.22;45.22;;;;;;;;;;5014345;28;20584;-43
2022/04/15 10:41:44;;;;;;;57.03;38.85;;;;;;;;;;5014884;28;20209;-46
2022/04/15 10:44:13;;;;;;;74.68;47.67;;;;;;;;;;5014866;28;20193;-43
2022/04/15 10:46:40;;;;;;;56.83;41.08;;;;;;;;;;5014711;28;20285;-42
2022/04/15 10:49:34;;;;;;;49.45;36.63;;;;;;;;;;5014742;28;20205;-43
2022/04/15 10:52:30;;;;;;;48.40;38.47;;;;;;;;;;5015358;28;20352;-43
2022/04/15 10:54:59;;;;;;;46.83;36.92;;;;;;;;;;5018112;28;20205;-43
2022/04/15 10:57:40;;;;;;;49.40;37.72;;;;;;;;;;5018020;28;20244;-43
2022/04/15 11:03:23;;;;;;;53.78;40.67;;;;;;;;;;5025321;28;20337;-46
2022/04/15 11:05:50;;;;;;;50.83;39.40;;;;;;;;;;5024916;28;20249;-50
2022/04/15 11:08:19;;;;;;;53.60;41.55;;;;;;;;;;5031074;28;20320;-44
2022/04/15 11:10:49;;;;;;;53.08;39.58;;;;;;;;;;5019468;28;20243;-43
2022/04/15 11:13:23;;;;;;;53.47;40.58;;;;;;;;;;5017903;28;20267;-43
2022/04/15 11:15:59;;;;;;;51.40;38.83;;;;;;;;;;5025957;28;20232;-44
2022/04/15 11:18:50;;;;;;;61.42;42.58;;;;;;;;;;5026890;28;20243;-43
2022/04/15 11:21:36;;;;;;;55.47;38.80;;;;;;;;;;5027238;28;20232;-43
2022/04/15 11:24:09;;;;;;;52.78;39.53;;;;;;;;;;5030428;28;20224;-42
2022/04/15 11:26:39;;;;;;;53.42;40.22;;;;;;;;;;5028818;28;20279;-47
2022/04/15 11:29:09;;;;;;;51.03;39.45;;;;;;;;;;5017797;28;20304;-44
2022/04/15 11:31:41;;;;;;;52.60;40.40;;;;;;;;;;5017409;28;20591;-42
2022/04/15 11:34:13;;;;;;;43.30;35.13;;;;;;;;;;5017200;28;20312;-42
2022/04/15 11:36:47;;;;;;;52.75;38.97;;;;;;;;;;5017153;28;20465;-43
2022/04/15 11:39:16;;;;;;;50.25;39.08;;;;;;;;;;5016949;28;20299;-47
2022/04/15 11:41:54;;;;;;;40.67;32.90;;;;;;;;;;5016350;28;20225;-47
2022/04/15 11:44:22;;;;;;;47.78;35.97;;;;;;;;;;5015584;28;20315;-43
2022/04/15 11:47:15;;;;;;;44.53;34.50;;;;;;;;;;5015653;28;20271;-44
2022/04/15 11:49:48;;;;;;;45.28;35.83;;;;;;;;;;5013439;28;20220;-48
2022/04/15 11:52:22;;;;;;;46.33;36.42;;;;;;;;;;5015835;28;20221;-45
2022/04/15 11:54:49;;;;;;;41.33;33.33;;;;;;;;;;5015523;28;20303;-43
2022/04/15 11:57:17;;;;;;;43.63;34.05;;;;;;;;;;5015302;28;20691;-44
2022/04/15 11:59:45;;;;;;;45.13;35.20;;;;;;;;;;5013377;28;20424;-44
2022/04/15 12:02:23;;;;;;;41.67;36.72;;;;;;;;;;5017004;28;20319;-43
2022/04/15 12:04:55;;;;;;;50.97;38.28;;;;;;;;;;5013877;28;20221;-43
2022/04/15 12:07:24;;;;;;;49.58;36.92;;;;;;;;;;5009847;28;20222;-43
2022/04/15 12:09:54;;;;;;;49.03;34.97;;;;;;;;;;5015176;28;20237;-43
2022/04/15 12:12:23;;;;;;;44.78;35.70;;;;;;;;;;5014808;28;20291;-43
2022/04/15 12:14:51;;;;;;;42.67;35.15;;;;;;;;;;5015076;28;20684;-44
2022/04/15 12:17:19;;;;;;;46.20;36.40;;;;;;;;;;5014822;28;20225;-43
2022/04/15 12:19:47;;;;;;;48.67;39.45;;;;;;;;;;5014889;28;20646;-45
2022/04/15 12:22:16;;;;;;;48.60;40.22;;;;;;;;;;5015073;28;20280;-43
2022/04/15 12:24:43;;;;;;;54.20;41.55;;;;;;;;;;5012521;28;20222;-43
2022/04/15 12:27:15;;;;;;;53.33;41.25;;;;;;;;;;5015025;28;20275;-43
2022/04/15 12:29:51;;;;;;;54.42;42.55;;;;;;;;;;4996607;28;20226;-43
2022/04/15 12:32:29;;;;;;;50.42;40.60;;;;;;;;;;4996916;28;20221;-46
2022/04/15 12:34:59;;;;;;;57.42;42.45;;;;;;;;;;4996581;28;20277;-47
2022/04/15 12:37:49;;;;;;;53.20;41.17;;;;;;;;;;4996632;28;20321;-43
2022/04/15 12:40:19;;;;;;;51.78;40.33;;;;;;;;;;4996062;28;20417;-44
2022/04/15 12:42:52;;;;;;;48.72;38.95;;;;;;;;;;4996329;28;20253;-45
2022/04/15 12:45:21;;;;;;;46.58;36.92;;;;;;;;;;4996231;28;20288;-46
2022/04/15 12:48:01;;;;;;;41.35;35.55;;;;;;;;;;4996279;28;20249;-44
2022/04/15 12:50:36;;;;;;;48.30;35.28;;;;;;;;;;4996349;28;20225;-44
2022/04/15 12:53:15;;;;;;;51.20;36.78;;;;;;;;;;4996127;28;20360;-43
2022/04/15 12:55:42;;;;;;;45.22;35.95;;;;;;;;;;4995637;28;20234;-43
2022/04/15 12:58:19;;;;;;;43.65;32.97;;;;;;;;;;5027224;28;20256;-43
2022/04/15 13:00:48;;;;;;;48.83;36.35;;;;;;;;;;5035400;28;20228;-45
2022/04/15 13:03:17;;;;;;;48.38;35.20;;;;;;;;;;5035534;28;20252;-45
2022/04/15 13:05:46;;;;;;;45.45;34.17;;;;;;;;;;5035330;28;20256;-45
2022/04/15 13:08:17;;;;;;;42.45;31.95;;;;;;;;;;5035193;28;20252;-44
2022/04/15 13:10:45;;;;;;;46.00;32.50;;;;;;;;;;5034656;28;20312;-44
2022/04/15 13:13:32;;;;;;;37.40;30.05;;;;;;;;;;5035248;28;20232;-46
2022/04/15 13:15:59;;;;;;;44.15;32.03;;;;;;;;;;5034695;28;20252;-45
2022/04/15 13:18:26;;;;;;;40.05;28.27;;;;;;;;;;5034795;28;20278;-45
2022/04/15 13:20:53;;;;;;;43.97;31.85;;;;;;;;;;5034798;28;20660;-44
2022/04/15 13:23:20;;;;;;;40.47;29.75;;;;;;;;;;5034870;28;20248;-44
2022/04/15 13:25:49;;;;;;;37.55;29.60;;;;;;;;;;5034366;28;20229;-44
2022/04/15 13:28:16;;;;;;;52.70;31.50;;;;;;;;;;5017865;28;20237;-44
2022/04/15 13:30:45;;;;;;;29.63;23.58;;;;;;;;;;5014852;28;20687;-44
2022/04/15 13:33:12;;;;;;;37.13;25.45;;;;;;;;;;5014877;28;20240;-44
2022/04/15 13:35:39;;;;;;;25.92;19.30;;;;;;;;;;5014446;28;20224;-49
2022/04/15 13:38:07;;;;;;;27.48;20.90;;;;;;;;;;5013585;28;20319;-43
2022/04/15 13:40:35;;;;;;;19.58;15.85;;;;;;;;;;5013112;28;20241;-44
2022/04/15 13:43:02;;;;;;;20.30;16.25;;;;;;;;;;5012846;28;20232;-47
2022/04/15 13:45:30;;;;;;;20.70;15.75;;;;;;;;;;5008973;28;20617;-47
2022/04/15 13:47:57;;;;;;;20.33;14.70;;;;;;;;;;5013427;28;20225;-44
2022/04/15 13:50:24;;;;;;;18.98;14.75;;;;;;;;;;5010508;28;20264;-44
2022/04/15 13:58:31;;;;;;;18.40;15.05;;;;;;;;;;5032882;28;20252;-48
2022/04/15 14:00:59;;;;;;;19.80;16.55;;;;;;;;;;5034210;28;20551;-45
2022/04/15 14:03:27;;;;;;;18.63;15.57;;;;;;;;;;5050063;28;20227;-46
2022/04/15 14:05:55;;;;;;;23.77;18.15;;;;;;;;;;5034128;28;20315;-45
2022/04/15 14:08:22;;;;;;;17.33;15.25;;;;;;;;;;5034276;28;20274;-44
2022/04/15 14:10:52;;;;;;;18.38;15.63;;;;;;;;;;5033806;28;20256;-44
2022/04/15 14:13:19;;;;;;;19.00;15.43;;;;;;;;;;5014556;28;20905;-46
2022/04/15 14:15:46;;;;;;;18.00;15.65;;;;;;;;;;5014696;28;20252;-44
2022/04/15 14:18:14;;;;;;;21.08;17.52;;;;;;;;;;5014125;28;20244;-44
2022/04/15 14:20:42;;;;;;;19.40;15.98;;;;;;;;;;5014489;28;20235;-44
2022/04/15 14:23:09;;;;;;;20.90;17.15;;;;;;;;;;5014697;28;20233;-43
2022/04/15 14:25:36;;;;;;;19.50;16.60;;;;;;;;;;5013303;28;20233;-43
2022/04/15 14:28:03;;;;;;;20.25;17.38;;;;;;;;;;5028235;28;20249;-43
2022/04/15 14:30:31;;;;;;;20.48;16.17;;;;;;;;;;5034094;28;20225;-44
2022/04/15 14:32:59;;;;;;;16.85;13.95;;;;;;;;;;5033948;28;20232;-43
2022/04/15 14:35:27;;;;;;;18.42;14.63;;;;;;;;;;5034077;28;20252;-43
2022/04/15 14:37:55;;;;;;;18.63;15.05;;;;;;;;;;5023233;28;20264;-43